Time;durP1;ratioP1;P1;durP2;ratioP2;P2;SDS_P1;SDS_P2;PMS_P1;PMS_P2;Temp;Humidity;BMP_temperature;BMP_pressure;BME280_temperature;BME280_humidity;BME280_pressure;Samples;Min_cycle;Max_cycle;Signal;HPM_P1;HPM_P2
2024/02/06 00:07:27;;;;;;;13.60;5.30;;;;;;;8.62;87.27;97863.13;436578;1253;107887;-40
2024/02/06 00:17:41;;;;;;;16.60;3.90;;;;;;;8.55;87.23;97854.84;436659;1252;95451;-40
2024/02/06 00:27:47;;;;;;;11.80;4.60;;;;;;;8.63;86.58;97853.70;436540;1248;108066;-40
2024/02/06 00:48:00;;;;;;;12.20;3.80;;;;;;;8.64;86.35;97848.52;436569;1253;95675;-40
2024/02/06 00:58:08;;;;;;;9.30;2.70;;;;;;;8.72;86.13;97845.38;436440;1257;107827;-40
2024/02/06 01:08:16;;;;;;;16.60;4.80;;;;;;;8.59;85.89;97837.63;436381;1247;107526;-39
2024/02/06 01:18:23;;;;;;;14.40;6.20;;;;;;;8.39;85.99;97831.17;436436;1253;95228;-39
2024/02/06 01:28:31;;;;;;;11.70;3.80;;;;;;;8.32;85.62;97825.15;436570;1247;109032;-40
2024/02/06 01:38:38;;;;;;;12.90;5.30;;;;;;;8.32;85.51;97830.73;436574;1251;109244;-39
2024/02/06 01:48:45;;;;;;;8.20;4.00;;;;;;;8.26;85.36;97828.90;436404;1251;95884;-40
2024/02/06 01:58:54;;;;;;;7.80;4.60;;;;;;;8.14;85.06;97826.10;436467;1247;107929;-39
2024/02/06 02:09:01;;;;;;;10.00;3.80;;;;;;;8.15;85.20;97822.94;436449;1248;106763;-40
2024/02/06 02:19:10;;;;;;;13.60;4.40;;;;;;;8.19;84.91;97826.98;436425;1253;96183;-39
2024/02/06 02:29:18;;;;;;;14.50;6.70;;;;;;;8.14;85.13;97825.10;436465;1251;108831;-40
2024/02/06 02:39:25;;;;;;;8.00;4.90;;;;;;;8.05;85.24;97828.16;436458;1250;107757;-41
2024/02/06 02:49:33;;;;;;;13.50;3.70;;;;;;;8.01;85.08;97829.30;436441;1248;95653;-41
2024/02/06 02:59:40;;;;;;;12.50;3.80;;;;;;;8.06;84.95;97837.89;436433;1248;109140;-41
2024/02/06 03:09:46;;;;;;;13.30;3.80;;;;;;;8.04;84.52;97829.58;436508;1252;108381;-39
2024/02/06 03:19:53;;;;;;;13.20;4.50;;;;;;;7.93;84.57;97830.52;436532;1248;96514;-40
2024/02/06 03:30:02;;;;;;;7.40;3.20;;;;;;;7.91;84.43;97837.69;436336;1247;96129;-41
2024/02/06 03:50:17;;;;;;;12.10;4.90;;;;;;;7.83;84.32;97843.89;436562;1253;95670;-40
2024/02/06 04:00:23;;;;;;;13.00;4.30;;;;;;;7.78;84.42;97846.23;436488;1247;95837;-40
2024/02/06 04:10:30;;;;;;;9.90;3.40;;;;;;;7.76;84.44;97845.34;435935;1252;585656;-41
2024/02/06 04:20:37;;;;;;;15.20;5.30;;;;;;;7.71;84.94;97851.94;436308;1251;95338;-39
2024/02/06 04:30:44;;;;;;;16.70;4.60;;;;;;;7.61;85.06;97845.04;436418;1253;95667;-40
2024/02/06 04:40:51;;;;;;;7.60;3.90;;;;;;;7.56;85.04;97827.36;436443;1253;108309;-39
2024/02/06 04:50:57;;;;;;;12.30;5.30;;;;;;;7.61;85.26;97825.63;436469;1252;108455;-39
2024/02/06 05:11:12;;;;;;;15.20;5.60;;;;;;;7.52;85.04;97828.60;436438;1252;109404;-40
2024/02/06 05:21:19;;;;;;;11.50;4.00;;;;;;;7.45;84.93;97821.61;436515;1251;107453;-40
2024/02/06 05:41:32;;;;;;;13.60;6.40;;;;;;;7.44;84.74;97826.70;436578;1251;108168;-40
2024/02/06 05:51:39;;;;;;;20.80;9.40;;;;;;;7.34;84.94;97821.83;436456;1248;107503;-40
2024/02/06 06:01:45;;;;;;;10.30;4.90;;;;;;;7.34;84.88;97817.15;436376;1248;96095;-39
2024/02/06 06:11:52;;;;;;;12.10;5.80;;;;;;;7.31;85.01;97814.36;436474;1247;109285;-41
2024/02/06 06:22:02;;;;;;;14.30;5.20;;;;;;;7.19;85.21;97809.27;436392;1248;109286;-40
2024/02/06 06:32:10;;;;;;;11.00;5.20;;;;;;;7.18;85.07;97804.19;436392;1254;95292;-39
2024/02/06 06:42:14;;;;;;;15.10;6.10;;;;;;;7.23;84.81;97800.05;436563;1253;107143;-40
2024/02/06 06:52:22;;;;;;;13.10;5.80;;;;;;;7.24;84.58;97797.08;436364;1253;95303;-40
2024/02/06 07:02:29;;;;;;;11.40;4.90;;;;;;;7.24;84.23;97801.73;436383;1261;95377;-40
2024/02/06 07:12:36;;;;;;;14.30;5.10;;;;;;;7.33;83.89;97807.27;436447;1250;109331;-41
2024/02/06 07:22:43;;;;;;;14.60;5.70;;;;;;;7.39;83.31;97821.73;436354;1248;108526;-39
2024/02/06 07:32:49;;;;;;;11.00;5.10;;;;;;;7.32;82.96;97833.80;436424;1252;95237;-38
2024/02/06 07:43:00;;;;;;;9.80;4.70;;;;;;;7.26;83.13;97839.39;436299;1254;111252;-40
2024/02/06 07:53:05;;;;;;;14.30;5.10;;;;;;;7.35;83.60;97840.14;436455;1248;106554;-39
2024/02/06 08:03:12;;;;;;;10.10;5.80;;;;;;;7.49;83.48;97833.34;436455;1261;95296;-40
2024/02/06 08:13:19;;;;;;;9.50;4.70;;;;;;;7.60;83.11;97845.80;436409;1251;107461;-40
2024/02/06 08:23:25;;;;;;;8.90;5.00;;;;;;;7.67;82.67;97847.17;436440;1248;108478;-39
2024/02/06 08:43:37;;;;;;;7.40;3.70;;;;;;;7.70;81.71;97845.29;437627;1248;109835;-39
2024/02/06 08:53:57;;;;;;;6.30;4.50;;;;;;;7.80;81.30;97840.25;437296;1260;107329;-39
2024/02/06 09:14:14;;;;;;;14.30;4.70;;;;;;;7.66;81.15;97858.93;437529;1248;110805;-39
2024/02/06 09:24:21;;;;;;;11.50;4.20;;;;;;;7.57;81.80;97860.42;437260;1251;108255;-40
2024/02/06 09:34:29;;;;;;;16.50;4.90;;;;;;;7.47;82.15;97861.32;437419;1254;97950;-39
2024/02/06 09:44:35;;;;;;;8.90;5.20;;;;;;;7.56;82.68;97851.19;437377;1260;110296;-40
2024/02/06 10:04:51;;;;;;;8.60;3.50;;;;;;;7.67;82.66;97853.32;437496;1248;97375;-39
2024/02/06 10:25:04;;;;;;;5.20;2.80;;;;;;;8.15;82.02;97832.90;437506;1248;97861;-40
2024/02/06 10:35:10;;;;;;;5.10;3.10;;;;;;;8.28;80.87;97827.89;437383;1248;109340;-40
2024/02/06 10:55:26;;;;;;;6.00;2.90;;;;;;;8.92;79.11;97801.39;437547;1248;97460;-40
2024/02/06 11:36:08;;;;;;;7.00;3.20;;;;;;;8.96;77.75;97797.29;437328;1251;107516;-39
2024/02/06 11:46:14;;;;;;;6.30;3.60;;;;;;;8.74;76.59;97790.13;437584;1248;97863;-40
2024/02/06 11:56:21;;;;;;;5.60;2.60;;;;;;;8.56;76.49;97774.27;437434;1248;107373;-39
2024/02/06 12:06:29;;;;;;;6.70;3.00;;;;;;;8.50;77.09;97766.61;437809;1248;97453;-39
2024/02/06 12:16:35;;;;;;;7.80;4.10;;;;;;;8.42;76.85;97754.59;437521;1251;108659;-40
2024/02/06 12:26:42;;;;;;;7.30;3.90;;;;;;;8.41;76.71;97745.65;437307;1251;108241;-40
2024/02/06 12:46:55;;;;;;;11.90;5.30;;;;;;;8.38;76.21;97733.38;437403;1248;107868;-40
2024/02/06 12:57:03;;;;;;;10.80;5.00;;;;;;;8.33;76.34;97726.45;437345;1250;97886;-40
2024/02/06 13:07:17;;;;;;;10.50;3.30;;;;;;;8.39;75.92;97710.33;437495;1250;109907;-40
2024/02/06 13:17:25;;;;;;;8.70;3.30;;;;;;;8.37;75.25;97707.82;437506;1248;107423;-40
2024/02/06 13:27:33;;;;;;;7.10;5.80;;;;;;;8.24;75.33;97710.10;437452;1250;97463;-39
2024/02/06 13:47:44;;;;;;;12.00;3.60;;;;;;;8.06;74.58;97707.55;437427;1250;109314;-39
2024/02/06 13:57:53;;;;;;;15.00;6.70;;;;;;;7.97;74.91;97705.98;437517;1248;97843;-41
2024/02/06 14:08:00;;;;;;;10.90;4.70;;;;;;;7.89;74.93;97691.67;437510;1250;110915;-40
2024/02/06 14:18:08;;;;;;;12.10;4.00;;;;;;;7.85;75.26;97684.23;437572;1248;108598;-40
2024/02/06 14:28:14;;;;;;;10.30;7.50;;;;;;;7.90;74.92;97674.31;437433;1251;97053;-38
2024/02/06 14:38:21;;;;;;;7.40;4.10;;;;;;;7.87;75.16;97665.79;437425;1253;110581;-40
2024/02/06 14:48:28;;;;;;;9.70;5.20;;;;;;;7.78;74.87;97666.71;437510;1250;107878;-39
2024/02/06 14:58:33;;;;;;;6.90;2.90;;;;;;;7.69;75.13;97666.45;437264;1251;97996;-41
2024/02/06 15:08:40;;;;;;;10.10;4.10;;;;;;;7.73;75.35;97658.31;437287;1248;97898;-39
2024/02/06 15:18:47;;;;;;;8.70;4.90;;;;;;;7.70;75.39;97658.09;437188;1250;108073;-40
2024/02/06 15:28:55;;;;;;;10.90;8.60;;;;;;;7.65;75.26;97656.27;437327;1247;97871;-39
2024/02/06 15:59:28;;;;;;;17.30;7.70;;;;;;;7.53;75.57;97637.81;437503;1248;97753;-38
2024/02/06 16:19:42;;;;;;;8.20;4.10;;;;;;;7.54;76.03;97631.31;437520;1247;107345;-41
2024/02/06 16:29:49;;;;;;;11.70;6.00;;;;;;;7.49;75.93;97623.91;437564;1250;97890;-40
2024/02/06 16:39:56;;;;;;;6.70;3.90;;;;;;;7.43;76.19;97618.23;437495;1247;111548;-39
2024/02/06 16:50:04;;;;;;;7.20;3.90;;;;;;;7.49;76.15;97607.70;437587;1250;107041;-40
2024/02/06 17:00:13;;;;;;;15.60;6.00;;;;;;;7.50;76.39;97599.05;437615;1250;96634;-40
2024/02/06 17:10:18;;;;;;;6.60;4.60;;;;;;;7.46;76.39;97597.45;437450;1252;111835;-40
2024/02/06 17:20:25;;;;;;;3.90;2.90;;;;;;;7.48;76.29;97595.11;437372;1250;109054;-41
2024/02/06 17:50:46;;;;;;;7.20;3.60;;;;;;;7.51;76.25;97570.43;437520;1250;106945;-40
2024/02/06 18:00:53;;;;;;;8.00;4.20;;;;;;;7.57;76.29;97558.89;437538;1247;97967;-40
2024/02/06 18:11:00;;;;;;;9.00;5.20;;;;;;;7.57;76.20;97560.23;437459;1248;110426;-40
2024/02/06 18:31:15;;;;;;;10.80;6.00;;;;;;;7.64;76.07;97542.80;437430;1246;97868;-40
2024/02/06 18:41:23;;;;;;;16.70;7.10;;;;;;;7.62;76.11;97533.45;437529;1250;109662;-40
2024/02/06 18:51:29;;;;;;;6.90;4.00;;;;;;;7.68;75.81;97520.71;437580;1250;107473;-41
2024/02/06 19:01:36;;;;;;;9.40;4.90;;;;;;;7.74;75.75;97505.48;437592;1250;97538;-39
2024/02/06 19:11:44;;;;;;;14.20;6.30;;;;;;;7.72;75.79;97502.94;437667;1250;110693;-40
2024/02/06 19:21:51;;;;;;;14.40;6.10;;;;;;;7.77;75.72;97494.28;437389;1250;108339;-41
2024/02/06 19:31:57;;;;;;;7.50;4.10;;;;;;;7.83;75.45;97481.14;437610;1246;97348;-39
2024/02/06 19:52:08;;;;;;;6.90;3.20;;;;;;;7.90;75.18;97473.44;437476;1247;97894;-40
2024/02/06 20:02:14;;;;;;;10.30;5.00;;;;;;;7.95;75.09;97465.66;437874;1248;109451;-40
2024/02/06 20:12:20;;;;;;;7.00;3.80;;;;;;;7.92;75.11;97457.30;437554;1250;108059;-41
2024/02/06 20:42:41;;;;;;;8.00;4.00;;;;;;;8.00;74.77;97438.46;437711;1247;109000;-40
2024/02/06 20:52:47;;;;;;;5.50;3.40;;;;;;;8.07;74.41;97426.30;437488;1247;96641;-40
2024/02/06 21:02:55;;;;;;;7.10;4.30;;;;;;;8.13;74.62;97402.80;437622;1246;111542;-40
2024/02/06 21:13:00;;;;;;;4.50;3.30;;;;;;;8.11;74.52;97386.80;437543;1250;107369;-41
2024/02/06 21:23:06;;;;;;;4.10;2.60;;;;;;;8.13;74.44;97379.04;438218;1250;97873;-40
2024/02/06 21:43:19;;;;;;;7.60;3.20;;;;;;;8.24;73.93;97348.30;437596;1247;109396;-39
2024/02/06 22:13:37;;;;;;;9.00;3.50;;;;;;;8.25;73.76;97322.55;437564;1251;108180;-40
2024/02/06 22:23:45;;;;;;;5.80;3.40;;;;;;;8.26;73.46;97315.83;437631;1248;97858;-39
2024/02/06 22:33:52;;;;;;;8.40;3.90;;;;;;;8.28;73.55;97308.70;437595;1248;108083;-40
2024/02/06 22:44:01;;;;;;;8.70;3.60;;;;;;;8.37;73.55;97305.61;437631;1250;97858;-41
2024/02/06 23:04:14;;;;;;;8.50;2.70;;;;;;;8.41;73.03;97284.37;437549;1248;107920;-39
2024/02/06 23:14:21;;;;;;;6.50;2.60;;;;;;;8.41;73.24;97271.89;437592;1250;97933;-40
2024/02/06 23:24:28;;;;;;;5.50;2.50;;;;;;;8.49;72.97;97261.85;437551;1248;111536;-40
2024/02/06 23:34:35;;;;;;;5.80;3.00;;;;;;;8.49;72.87;97254.36;438018;1247;107699;-40
2024/02/06 23:44:41;;;;;;;7.10;2.70;;;;;;;8.46;73.05;97245.64;437760;1250;96628;-40
2024/02/06 23:54:48;;;;;;;5.50;2.40;;;;;;;8.43;73.11;97231.50;437800;1247;107968;-40
